Time;durP1;ratioP1;P1;durP2;ratioP2;P2;SDS_P1;SDS_P2;PMS_P1;PMS_P2;Temp;Humidity;BMP_temperature;BMP_pressure;BME280_temperature;BME280_humidity;BME280_pressure;Samples;Min_cycle;Max_cycle;Signal;HPM_P1;HPM_P2
2021/01/07 00:00:24;;;;;;;1.40;1.00;;;22.20;30.00;;;;;;4993181;28;20046;-45
2021/01/07 00:02:50;;;;;;;0.93;0.70;;;22.10;30.00;;;;;;4992508;28;20030;-46
2021/01/07 00:05:15;;;;;;;0.93;0.70;;;22.10;30.00;;;;;;4993650;28;20193;-45
2021/01/07 00:07:41;;;;;;;1.10;0.80;;;22.10;30.00;;;;;;4990477;28;20046;-45
2021/01/07 00:10:08;;;;;;;1.48;0.90;;;22.10;30.00;;;;;;4993931;28;20041;-48
2021/01/07 00:12:33;;;;;;;1.42;0.70;;;22.10;30.00;;;;;;4990953;28;20039;-45
2021/01/07 00:14:59;;;;;;;1.08;0.57;;;22.10;30.00;;;;;;4994554;28;20044;-45
2021/01/07 00:17:25;;;;;;;1.10;0.70;;;22.10;30.00;;;;;;4993136;28;20445;-45
2021/01/07 00:19:51;;;;;;;0.95;0.75;;;22.00;29.90;;;;;;4993846;28;20018;-45
2021/01/07 00:22:17;;;;;;;0.85;0.70;;;22.00;30.00;;;;;;4991259;28;20454;-46
2021/01/07 00:24:42;;;;;;;1.55;0.85;;;22.00;30.00;;;;;;4991235;28;20032;-46
2021/01/07 00:27:08;;;;;;;1.55;0.77;;;22.00;30.00;;;;;;4982886;28;20065;-47
2021/01/07 00:29:34;;;;;;;1.25;0.60;;;22.00;30.00;;;;;;4983123;28;20089;-47
2021/01/07 00:32:00;;;;;;;0.80;0.65;;;22.00;30.00;;;;;;4993605;28;20100;-47
2021/01/07 00:34:25;;;;;;;0.85;0.80;;;22.00;30.00;;;;;;4994973;28;20413;-45
2021/01/07 00:36:55;;;;;;;1.17;0.70;;;22.00;30.00;;;;;;4992589;28;20125;-44
2021/01/07 00:39:21;;;;;;;3.70;0.90;;;22.00;30.00;;;;;;4989469;28;20041;-48
2021/01/07 00:41:53;;;;;;;1.00;0.70;;;22.00;30.00;;;;;;4993439;28;20023;-48
2021/01/07 00:44:18;;;;;;;1.42;0.60;;;22.00;30.00;;;;;;4980768;28;20061;-45
2021/01/07 00:46:44;;;;;;;0.88;0.70;;;21.90;30.00;;;;;;4992676;28;20070;-46
2021/01/07 00:49:10;;;;;;;1.20;0.80;;;21.90;30.00;;;;;;4991580;28;20081;-45
2021/01/07 00:51:36;;;;;;;2.58;0.80;;;21.90;30.00;;;;;;4992172;28;20030;-44
2021/01/07 00:54:02;;;;;;;1.77;0.70;;;21.90;30.00;;;;;;4979047;28;20454;-44
2021/01/07 00:56:33;;;;;;;1.25;0.70;;;21.90;30.00;;;;;;4993487;28;20026;-46
2021/01/07 00:58:59;;;;;;;1.02;0.68;;;21.90;30.00;;;;;;4976057;28;20034;-45
2021/01/07 01:01:25;;;;;;;1.50;0.80;;;21.90;30.00;;;;;;4993166;28;20401;-44
2021/01/07 01:03:51;;;;;;;1.92;0.63;;;21.90;30.00;;;;;;4993250;28;20034;-45
2021/01/07 01:06:16;;;;;;;1.63;0.90;;;21.90;30.00;;;;;;4992170;28;20038;-47
2021/01/07 01:08:42;;;;;;;2.45;0.90;;;21.90;30.00;;;;;;4992817;28;20022;-45
2021/01/07 01:11:08;;;;;;;1.55;0.80;;;21.80;30.00;;;;;;4992890;28;20029;-46
2021/01/07 01:13:34;;;;;;;1.17;0.75;;;21.80;30.00;;;;;;4986300;28;20065;-46
2021/01/07 01:15:59;;;;;;;1.05;0.70;;;21.80;29.90;;;;;;4995431;28;20029;-43
2021/01/07 01:18:25;;;;;;;0.93;0.70;;;21.80;30.00;;;;;;4996906;28;20027;-45
2021/01/07 01:20:51;;;;;;;2.75;0.70;;;21.80;29.90;;;;;;4989826;28;20034;-44
2021/01/07 01:23:17;;;;;;;1.63;0.60;;;21.80;29.90;;;;;;4996700;28;20322;-45
2021/01/07 01:25:42;;;;;;;0.95;0.60;;;21.80;29.90;;;;;;4997409;28;20180;-48
2021/01/07 01:28:08;;;;;;;1.48;0.70;;;21.80;29.90;;;;;;4994570;28;20038;-46
2021/01/07 01:30:34;;;;;;;1.05;0.75;;;21.80;29.90;;;;;;4996378;28;20034;-48
2021/01/07 01:33:00;;;;;;;2.20;0.70;;;21.80;29.90;;;;;;4996979;28;20038;-45
2021/01/07 01:35:25;;;;;;;1.23;0.75;;;21.70;29.90;;;;;;4996536;28;20026;-46
2021/01/07 01:37:51;;;;;;;1.08;0.60;;;21.70;29.90;;;;;;4995063;28;20445;-44
2021/01/07 01:40:17;;;;;;;1.35;0.70;;;21.70;29.90;;;;;;4995689;28;20034;-45
2021/01/07 01:42:43;;;;;;;1.00;0.63;;;21.70;29.90;;;;;;4995960;28;20337;-45
2021/01/07 01:45:09;;;;;;;0.95;0.70;;;21.70;29.90;;;;;;4996579;28;20048;-46
2021/01/07 01:47:35;;;;;;;0.90;0.65;;;21.70;29.90;;;;;;4995710;28;20089;-45
2021/01/07 01:50:01;;;;;;;1.48;1.00;;;21.70;29.90;;;;;;4991841;28;20406;-44
2021/01/07 01:52:29;;;;;;;0.80;0.55;;;21.70;29.90;;;;;;4994554;28;20041;-46
2021/01/07 01:54:54;;;;;;;1.38;0.80;;;21.70;29.90;;;;;;4995185;28;20469;-45
2021/01/07 01:57:20;;;;;;;1.25;0.73;;;21.70;29.90;;;;;;4991779;28;20046;-44
2021/01/07 01:59:46;;;;;;;0.70;0.60;;;21.70;29.90;;;;;;4996161;28;20092;-45
2021/01/07 02:02:17;;;;;;;0.70;0.50;;;21.70;29.90;;;;;;4992681;28;21522;-45
2021/01/07 02:04:47;;;;;;;1.40;0.80;;;21.70;29.90;;;;;;4982379;28;20034;-43
2021/01/07 02:07:16;;;;;;;1.55;0.60;;;21.70;30.40;;;;;;4990914;28;20037;-46
2021/01/07 02:09:44;;;;;;;1.20;0.80;;;21.60;29.90;;;;;;4993390;28;20417;-45
2021/01/07 02:12:10;;;;;;;0.88;0.70;;;21.60;29.90;;;;;;4995488;28;20080;-44
2021/01/07 02:14:41;;;;;;;1.77;0.80;;;21.60;29.90;;;;;;4995528;28;20515;-47
2021/01/07 02:17:07;;;;;;;1.02;0.68;;;21.60;29.90;;;;;;4993806;28;20033;-45
2021/01/07 02:19:33;;;;;;;1.00;0.60;;;21.60;30.00;;;;;;4993954;28;20473;-45
2021/01/07 02:22:00;;;;;;;1.13;0.60;;;21.60;30.00;;;;;;4997951;28;20065;-46
2021/01/07 02:24:31;;;;;;;1.10;0.70;;;21.60;30.00;;;;;;4995610;28;20361;-48
2021/01/07 02:27:02;;;;;;;0.90;0.63;;;21.60;30.00;;;;;;4994014;28;20047;-46
2021/01/07 02:29:27;;;;;;;1.00;0.75;;;21.60;30.00;;;;;;4993281;28;20034;-47
2021/01/07 02:31:53;;;;;;;0.90;0.70;;;21.50;30.00;;;;;;4994340;28;20026;-45
2021/01/07 02:34:19;;;;;;;1.05;0.70;;;21.50;30.00;;;;;;4995115;28;20023;-43
2021/01/07 02:36:45;;;;;;;0.60;0.60;;;21.50;30.00;;;;;;4995818;28;20037;-45
2021/01/07 02:39:11;;;;;;;1.05;0.68;;;21.50;30.00;;;;;;4994787;28;20041;-45
2021/01/07 02:41:36;;;;;;;1.35;0.55;;;21.50;30.00;;;;;;4988913;28;20030;-45
2021/01/07 02:44:02;;;;;;;0.70;0.70;;;21.50;30.00;;;;;;4996109;28;20057;-45
2021/01/07 02:46:28;;;;;;;1.42;0.77;;;21.50;30.00;;;;;;4995017;28;20038;-44
2021/01/07 02:48:54;;;;;;;1.10;0.65;;;21.50;30.00;;;;;;4994069;28;20037;-49
2021/01/07 02:51:19;;;;;;;1.00;0.70;;;21.40;30.00;;;;;;4994070;28;20030;-44
2021/01/07 02:53:45;;;;;;;1.02;0.63;;;21.40;30.00;;;;;;4995701;28;20041;-46
2021/01/07 02:56:11;;;;;;;1.42;0.90;;;21.40;30.00;;;;;;4993513;28;20094;-48
2021/01/07 02:58:37;;;;;;;0.70;0.52;;;21.40;30.00;;;;;;4994366;28;20312;-44
2021/01/07 03:01:03;;;;;;;0.77;0.68;;;21.40;30.00;;;;;;4992751;28;20018;-48
2021/01/07 03:03:29;;;;;;;0.70;0.50;;;21.40;30.00;;;;;;4994884;28;20037;-44
2021/01/07 03:05:54;;;;;;;0.80;0.63;;;21.40;30.10;;;;;;4994594;28;20361;-45
2021/01/07 03:08:20;;;;;;;1.30;0.75;;;21.40;30.10;;;;;;4995264;28;20133;-47
2021/01/07 03:10:46;;;;;;;0.73;0.50;;;21.40;30.00;;;;;;4977695;28;20073;-45
2021/01/07 03:13:12;;;;;;;0.98;0.75;;;21.40;30.10;;;;;;4990832;28;20061;-45
2021/01/07 03:15:37;;;;;;;0.68;0.57;;;21.40;30.10;;;;;;4994534;28;20018;-45
2021/01/07 03:18:03;;;;;;;0.90;0.70;;;21.40;30.10;;;;;;4994351;28;20022;-43
2021/01/07 03:20:29;;;;;;;2.20;0.90;;;21.40;30.10;;;;;;4994289;28;20117;-43
2021/01/07 03:22:55;;;;;;;0.63;0.50;;;21.40;30.10;;;;;;4994879;28;20481;-45
2021/01/07 03:25:21;;;;;;;0.95;0.50;;;21.30;30.00;;;;;;4993805;28;20019;-43
2021/01/07 03:27:46;;;;;;;0.82;0.60;;;21.30;30.00;;;;;;4994930;28;20134;-44
2021/01/07 03:30:13;;;;;;;0.60;0.60;;;21.30;30.10;;;;;;4992330;28;20031;-44
2021/01/07 03:32:38;;;;;;;1.42;0.60;;;21.30;30.00;;;;;;4989043;28;20026;-45
2021/01/07 03:35:05;;;;;;;0.40;0.40;;;21.30;30.10;;;;;;4993933;28;20129;-46
2021/01/07 03:37:32;;;;;;;0.98;0.50;;;21.30;30.00;;;;;;4994226;28;20105;-48
2021/01/07 03:39:59;;;;;;;0.80;0.60;;;21.30;30.00;;;;;;4993186;28;20069;-46
2021/01/07 03:42:24;;;;;;;0.70;0.70;;;21.30;30.10;;;;;;4991601;28;20030;-45
2021/01/07 03:44:50;;;;;;;0.70;0.50;;;21.30;30.00;;;;;;4992596;28;20413;-45
2021/01/07 03:47:16;;;;;;;0.98;0.60;;;21.30;30.00;;;;;;4975429;28;20117;-44
2021/01/07 03:49:42;;;;;;;1.25;0.80;;;21.20;30.00;;;;;;4992762;28;20109;-45
2021/01/07 03:52:07;;;;;;;0.63;0.47;;;21.30;30.10;;;;;;4992919;28;20113;-44
2021/01/07 03:54:33;;;;;;;0.45;0.43;;;21.20;30.00;;;;;;4993767;28;20073;-44
2021/01/07 03:57:00;;;;;;;1.27;0.60;;;21.20;30.00;;;;;;4993417;28;20042;-44
2021/01/07 03:59:25;;;;;;;0.95;0.50;;;21.20;30.00;;;;;;4993770;28;20026;-45
2021/01/07 04:01:51;;;;;;;0.60;0.55;;;21.20;30.00;;;;;;4994385;28;20429;-44
2021/01/07 04:04:17;;;;;;;1.80;0.63;;;21.20;30.00;;;;;;4993869;28;20022;-46
2021/01/07 04:06:43;;;;;;;0.98;0.57;;;21.20;30.00;;;;;;4993254;28;20069;-46
2021/01/07 04:09:08;;;;;;;0.75;0.50;;;21.20;30.00;;;;;;4992005;28;20067;-47
2021/01/07 04:11:34;;;;;;;1.13;0.60;;;21.20;30.00;;;;;;4993200;28;20041;-47
2021/01/07 04:14:00;;;;;;;1.15;0.63;;;21.20;30.00;;;;;;4993474;28;20050;-46
2021/01/07 04:16:26;;;;;;;0.52;0.50;;;21.20;30.00;;;;;;4991101;28;20429;-44
2021/01/07 04:18:52;;;;;;;0.93;0.60;;;21.20;30.00;;;;;;4994147;28;20030;-44
2021/01/07 04:21:19;;;;;;;1.10;0.50;;;21.20;30.00;;;;;;4992882;28;20445;-47
2021/01/07 04:23:45;;;;;;;0.95;0.47;;;21.20;30.00;;;;;;4993927;28;20030;-44
2021/01/07 04:26:11;;;;;;;0.57;0.47;;;21.20;30.00;;;;;;4993060;28;20026;-44
2021/01/07 04:28:37;;;;;;;1.05;0.60;;;21.20;30.00;;;;;;4994430;28;20043;-44
2021/01/07 04:31:03;;;;;;;0.40;0.40;;;21.20;30.00;;;;;;4993607;28;20030;-45
2021/01/07 04:33:28;;;;;;;0.35;0.35;;;21.20;30.00;;;;;;4990471;28;20114;-45
2021/01/07 04:35:54;;;;;;;0.82;0.57;;;21.20;30.00;;;;;;4993385;28;20381;-44
2021/01/07 04:38:20;;;;;;;0.47;0.47;;;21.10;30.00;;;;;;4993176;28;20034;-51
2021/01/07 04:40:46;;;;;;;0.40;0.40;;;21.10;30.00;;;;;;4993331;28;20054;-44
2021/01/07 04:43:11;;;;;;;0.32;0.32;;;21.10;30.00;;;;;;4992522;28;20085;-46
2021/01/07 04:45:37;;;;;;;1.40;0.43;;;21.10;30.00;;;;;;4993674;28;20027;-43
2021/01/07 04:48:04;;;;;;;0.93;0.50;;;21.10;30.00;;;;;;4989250;28;20042;-46
2021/01/07 04:50:30;;;;;;;0.80;0.50;;;21.10;30.00;;;;;;4993361;28;20037;-45
2021/01/07 04:52:56;;;;;;;0.80;0.60;;;21.10;30.00;;;;;;4992618;28;20349;-46
2021/01/07 04:55:22;;;;;;;0.47;0.43;;;21.10;30.00;;;;;;4992426;28;20026;-47
2021/01/07 04:57:48;;;;;;;1.08;0.47;;;21.10;30.00;;;;;;4993642;28;20113;-45
2021/01/07 05:00:14;;;;;;;0.50;0.40;;;21.10;30.00;;;;;;4991506;28;20494;-44
2021/01/07 05:02:40;;;;;;;1.25;0.65;;;21.10;30.00;;;;;;4991207;28;20476;-49
2021/01/07 05:05:07;;;;;;;1.23;0.70;;;21.10;30.00;;;;;;4993142;28;20026;-46
2021/01/07 05:07:37;;;;;;;0.60;0.60;;;21.00;30.00;;;;;;4992235;28;20075;-43
2021/01/07 05:10:06;;;;;;;0.98;0.77;;;21.00;30.00;;;;;;4989606;28;20428;-44
2021/01/07 05:12:31;;;;;;;0.85;0.70;;;21.00;30.00;;;;;;4992691;28;20141;-44
2021/01/07 05:14:57;;;;;;;1.33;0.70;;;21.00;30.00;;;;;;4992338;28;20113;-44
2021/01/07 05:17:23;;;;;;;1.15;0.80;;;21.00;30.00;;;;;;4993167;28;20045;-43
2021/01/07 05:19:49;;;;;;;0.90;0.70;;;21.00;30.00;;;;;;4993475;28;20050;-46
2021/01/07 05:22:15;;;;;;;0.80;0.70;;;21.00;30.00;;;;;;4991802;28;20026;-45
2021/01/07 05:24:41;;;;;;;0.45;0.45;;;21.00;30.10;;;;;;4991706;28;20035;-45
2021/01/07 05:27:08;;;;;;;0.68;0.50;;;21.00;30.10;;;;;;4990367;28;20034;-44
2021/01/07 05:29:35;;;;;;;0.88;0.60;;;21.00;30.10;;;;;;4991554;28;20026;-43
2021/01/07 05:32:01;;;;;;;1.42;0.68;;;21.00;30.10;;;;;;4993070;28;20030;-45
2021/01/07 05:34:26;;;;;;;0.80;0.80;;;21.00;30.10;;;;;;4991553;28;20033;-45
2021/01/07 05:36:59;;;;;;;1.05;0.73;;;21.00;30.10;;;;;;4991236;28;20473;-45
2021/01/07 05:39:34;;;;;;;0.73;0.50;;;21.00;30.10;;;;;;4990504;28;20058;-44
2021/01/07 05:42:03;;;;;;;0.90;0.65;;;21.00;30.10;;;;;;4991700;28;20422;-44
2021/01/07 05:44:32;;;;;;;1.20;0.70;;;21.00;30.10;;;;;;4991593;28;20026;-47
2021/01/07 05:46:58;;;;;;;1.13;0.70;;;21.00;30.10;;;;;;4987964;28;20047;-44
2021/01/07 05:49:38;;;;;;;0.70;0.52;;;21.00;30.10;;;;;;4989811;28;20038;-45
2021/01/07 05:52:07;;;;;;;0.60;0.60;;;20.90;30.10;;;;;;4991454;28;20026;-45
2021/01/07 05:54:34;;;;;;;0.60;0.50;;;20.90;30.10;;;;;;4992291;28;20026;-46
2021/01/07 05:57:04;;;;;;;1.02;0.82;;;20.90;30.10;;;;;;4992568;28;20346;-47
2021/01/07 05:59:33;;;;;;;1.00;0.70;;;20.90;30.10;;;;;;4994044;28;20027;-44
2021/01/07 06:02:04;;;;;;;0.60;0.50;;;20.90;30.10;;;;;;4995819;28;20065;-47
2021/01/07 06:04:34;;;;;;;0.50;0.50;;;20.90;30.20;;;;;;4995933;28;20034;-48
2021/01/07 06:07:04;;;;;;;0.90;0.60;;;20.90;30.20;;;;;;4996092;28;20034;-49
2021/01/07 06:09:31;;;;;;;0.95;0.50;;;20.90;30.30;;;;;;4995069;28;20065;-46
2021/01/07 06:11:59;;;;;;;0.43;0.43;;;20.90;30.40;;;;;;4996047;28;20026;-46
2021/01/07 06:14:28;;;;;;;0.60;0.50;;;20.90;30.50;;;;;;4994110;28;20073;-43
2021/01/07 06:16:55;;;;;;;0.80;0.57;;;20.90;30.50;;;;;;4992582;28;20092;-46
2021/01/07 06:19:31;;;;;;;0.60;0.50;;;20.90;30.40;;;;;;4996215;28;20041;-47
2021/01/07 06:22:14;;;;;;;0.50;0.50;;;20.80;30.40;;;;;;4994934;28;20022;-44
2021/01/07 06:24:42;;;;;;;0.63;0.45;;;20.80;30.30;;;;;;4995238;28;20445;-45
2021/01/07 06:27:27;;;;;;;0.55;0.50;;;20.80;30.30;;;;;;4995782;28;20357;-44
2021/01/07 06:29:56;;;;;;;0.88;0.47;;;20.80;30.30;;;;;;4994801;28;20042;-49
2021/01/07 06:32:23;;;;;;;0.40;0.40;;;20.80;30.30;;;;;;4994229;28;20497;-46
2021/01/07 06:34:51;;;;;;;0.55;0.30;;;20.80;30.30;;;;;;4993981;28;20357;-45
2021/01/07 06:37:37;;;;;;;0.40;0.40;;;20.80;30.40;;;;;;4995621;28;20069;-47
2021/01/07 06:40:09;;;;;;;0.90;0.35;;;20.80;30.40;;;;;;4993310;28;20109;-45
2021/01/07 06:42:36;;;;;;;0.95;0.50;;;20.80;30.40;;;;;;4993211;28;20034;-49
2021/01/07 06:45:07;;;;;;;0.63;0.32;;;20.80;30.40;;;;;;4992938;28;20085;-47
2021/01/07 06:47:33;;;;;;;0.65;0.50;;;20.80;30.40;;;;;;4990607;28;20034;-47
2021/01/07 06:50:00;;;;;;;0.50;0.40;;;20.80;30.40;;;;;;4993635;28;20076;-45
2021/01/07 06:52:26;;;;;;;1.10;0.57;;;20.80;30.40;;;;;;4994365;28;20445;-45
2021/01/07 06:54:56;;;;;;;0.77;0.57;;;20.80;30.40;;;;;;4995727;28;20041;-46
2021/01/07 06:57:22;;;;;;;0.55;0.40;;;20.80;30.40;;;;;;4990843;28;20515;-46
2021/01/07 06:59:57;;;;;;;0.60;0.50;;;20.80;30.40;;;;;;4993452;28;20076;-48
2021/01/07 07:02:24;;;;;;;0.50;0.50;;;20.80;30.40;;;;;;4993978;28;20172;-46
2021/01/07 07:04:58;;;;;;;0.70;0.50;;;20.70;30.40;;;;;;4994278;28;20022;-49
2021/01/07 07:07:27;;;;;;;;;;;20.80;30.40;;;;;;4993801;28;20046;-46
2021/01/07 07:10:18;;;;;;;1.08;0.50;;;20.80;30.40;;;;;;4994631;28;19910;-46
2021/01/07 07:12:51;;;;;;;0.40;0.40;;;20.80;30.40;;;;;;4994345;28;20101;-45
2021/01/07 07:15:22;;;;;;;0.98;0.50;;;20.70;30.50;;;;;;4990874;28;20057;-46
2021/01/07 07:17:51;;;;;;;1.10;0.60;;;20.70;30.50;;;;;;4993346;28;20303;-43
2021/01/07 07:20:26;;;;;;;0.63;0.47;;;20.70;30.50;;;;;;4992780;28;20346;-44
2021/01/07 07:22:52;;;;;;;0.55;0.40;;;20.70;30.50;;;;;;4993956;28;20065;-46
2021/01/07 07:25:24;;;;;;;0.77;0.60;;;20.70;30.50;;;;;;4993261;28;20041;-45
2021/01/07 07:27:54;;;;;;;0.60;0.40;;;20.70;30.50;;;;;;4993454;28;20065;-44
2021/01/07 07:30:33;;;;;;;0.63;0.40;;;20.70;30.50;;;;;;4992374;28;20106;-47
2021/01/07 07:33:00;;;;;;;1.02;0.57;;;20.70;30.50;;;;;;4979673;28;20530;-45
2021/01/07 07:35:32;;;;;;;0.55;0.50;;;20.70;30.40;;;;;;4979192;28;20026;-47
2021/01/07 07:37:58;;;;;;;0.70;0.55;;;20.70;30.40;;;;;;4993311;28;20327;-45
2021/01/07 07:40:34;;;;;;;0.50;0.40;;;20.70;30.40;;;;;;4992681;28;20125;-47
2021/01/07 07:43:01;;;;;;;0.60;0.50;;;20.70;30.40;;;;;;4993867;28;20100;-54
2021/01/07 07:45:31;;;;;;;0.68;0.40;;;20.70;30.50;;;;;;4991425;28;20032;-46
2021/01/07 07:47:56;;;;;;;0.60;0.40;;;20.70;30.90;;;;;;4992342;28;20054;-50
2021/01/07 07:50:28;;;;;;;0.60;0.50;;;20.70;31.40;;;;;;4995666;28;20034;-51
2021/01/07 07:53:07;;;;;;;1.55;0.60;;;20.70;31.90;;;;;;4990611;28;20046;-50
2021/01/07 07:55:43;;;;;;;0.40;0.30;;;20.70;32.20;;;;;;4992039;28;20081;-45
2021/01/07 07:58:10;;;;;;;2.60;0.30;;;20.80;32.50;;;;;;4994140;28;20030;-49
2021/01/07 08:00:36;;;;;;;1.95;0.40;;;20.80;32.60;;;;;;4990347;28;20081;-48
2021/01/07 08:03:03;;;;;;;0.85;0.50;;;20.80;32.60;;;;;;4994031;28;20038;-48
2021/01/07 08:05:29;;;;;;;0.50;0.50;;;20.80;32.40;;;;;;4990888;28;20022;-48
2021/01/07 08:07:56;;;;;;;0.93;0.50;;;20.90;32.30;;;;;;4991880;28;20046;-49
2021/01/07 08:10:22;;;;;;;0.88;0.50;;;20.90;32.10;;;;;;4991669;28;20034;-46
2021/01/07 08:12:49;;;;;;;0.70;0.40;;;20.90;32.00;;;;;;4981159;28;20038;-46
2021/01/07 08:15:31;;;;;;;2.15;0.50;;;20.90;31.80;;;;;;4993988;28;20441;-46
2021/01/07 08:18:20;;;;;;;1.23;0.68;;;21.00;31.70;;;;;;4992763;28;20034;-45
2021/01/07 08:20:47;;;;;;;0.70;0.68;;;21.00;31.60;;;;;;4993172;28;20046;-46
2021/01/07 08:23:16;;;;;;;0.90;0.47;;;21.00;31.50;;;;;;4992876;28;20030;-47
2021/01/07 08:25:46;;;;;;;2.75;0.50;;;21.10;31.50;;;;;;4993621;28;20042;-48
2021/01/07 08:28:21;;;;;;;0.88;0.52;;;21.10;31.40;;;;;;4991187;28;20126;-49
2021/01/07 08:30:57;;;;;;;0.60;0.50;;;21.10;31.30;;;;;;4990183;28;20070;-52
2021/01/07 08:33:25;;;;;;;0.60;0.60;;;21.10;31.20;;;;;;4992851;28;20034;-51
2021/01/07 08:35:51;;;;;;;0.82;0.45;;;21.10;31.10;;;;;;4993676;28;20038;-50
2021/01/07 08:38:31;;;;;;;0.55;0.50;;;21.20;31.10;;;;;;4994651;28;20058;-49
2021/01/07 08:41:22;;;;;;;0.73;0.50;;;21.20;31.10;;;;;;4993701;28;20042;-49
2021/01/07 08:43:52;;;;;;;0.95;0.50;;;21.20;31.00;;;;;;4992263;28;20372;-46
2021/01/07 08:46:19;;;;;;;0.60;0.60;;;21.20;31.00;;;;;;4993753;28;20030;-49
2021/01/07 08:48:56;;;;;;;0.85;0.45;;;21.20;30.90;;;;;;4989854;28;20170;-51
2021/01/07 08:51:22;;;;;;;0.75;0.60;;;21.30;30.90;;;;;;4996559;28;20049;-49
2021/01/07 08:53:52;;;;;;;1.00;0.60;;;21.20;30.80;;;;;;4992548;28;20357;-47
2021/01/07 08:56:35;;;;;;;0.82;0.60;;;21.30;30.20;;;;;;4990507;28;20564;-53
2021/01/07 08:59:21;;;;;;;1.25;0.50;;;21.20;30.00;;;;;;4991689;28;20054;-46
2021/01/07 09:02:05;;;;;;;0.47;0.40;;;21.20;30.20;;;;;;4990607;28;20117;-46
2021/01/07 09:04:36;;;;;;;;;;;21.20;30.30;;;;;;4997939;28;20030;-45
2021/01/07 09:07:09;;;;;;;0.65;0.40;;;21.20;30.30;;;;;;4993256;28;20020;-46
2021/01/07 09:09:40;;;;;;;0.43;0.35;;;21.20;30.50;;;;;;4992928;28;20052;-47
2021/01/07 09:12:08;;;;;;;0.63;0.40;;;21.30;30.60;;;;;;4990866;28;20046;-48
2021/01/07 09:14:42;;;;;;;0.40;0.40;;;21.30;30.70;;;;;;4989999;28;20030;-46
2021/01/07 09:17:08;;;;;;;0.40;0.40;;;21.30;30.80;;;;;;4982042;28;20093;-47
2021/01/07 09:19:34;;;;;;;0.85;0.50;;;21.30;30.80;;;;;;4981257;28;20490;-46
2021/01/07 09:22:01;;;;;;;0.75;0.52;;;21.30;30.90;;;;;;4993287;28;20035;-47
2021/01/07 09:24:37;;;;;;;1.05;0.50;;;21.40;30.90;;;;;;4995099;28;20034;-47
2021/01/07 09:27:15;;;;;;;0.60;0.60;;;21.40;30.90;;;;;;4992949;28;20042;-46
2021/01/07 09:29:41;;;;;;;2.05;0.47;;;21.50;30.90;;;;;;4991999;28;20034;-52
2021/01/07 09:32:09;;;;;;;0.30;0.30;;;21.50;30.90;;;;;;4992474;28;20030;-44
2021/01/07 09:34:36;;;;;;;0.68;0.43;;;21.60;30.90;;;;;;4995871;28;20022;-49
2021/01/07 09:37:11;;;;;;;1.48;0.30;;;21.60;30.80;;;;;;4998021;28;20421;-49
2021/01/07 09:39:37;;;;;;;1.35;0.52;;;21.70;30.70;;;;;;4993567;28;20053;-43
2021/01/07 09:42:04;;;;;;;0.30;0.30;;;21.70;30.70;;;;;;4995828;28;20049;-44
2021/01/07 09:44:30;;;;;;;0.32;0.32;;;21.80;30.70;;;;;;4996286;28;20034;-45
2021/01/07 09:46:57;;;;;;;2.85;0.50;;;21.80;30.60;;;;;;4988964;28;20456;-45
2021/01/07 09:49:24;;;;;;;0.85;0.40;;;21.90;30.60;;;;;;4996910;28;20117;-45
2021/01/07 09:51:50;;;;;;;2.42;0.50;;;21.90;30.50;;;;;;4995489;28;20465;-44
2021/01/07 09:54:16;;;;;;;0.80;0.30;;;22.00;30.40;;;;;;4996609;28;20041;-58
2021/01/07 09:56:42;;;;;;;0.75;0.45;;;22.00;30.40;;;;;;4998072;28;20030;-45
2021/01/07 09:59:08;;;;;;;0.75;0.50;;;22.10;30.40;;;;;;4998312;28;20030;-44
2021/01/07 10:01:34;;;;;;;0.50;0.30;;;22.20;30.30;;;;;;4984817;28;20027;-44
2021/01/07 10:04:00;;;;;;;0.75;0.50;;;22.20;30.20;;;;;;4995787;28;20046;-44
2021/01/07 10:06:26;;;;;;;0.30;0.30;;;22.30;30.10;;;;;;4996978;28;20062;-44
2021/01/07 10:08:51;;;;;;;0.80;0.47;;;22.30;30.10;;;;;;4992245;28;20038;-44
2021/01/07 10:11:17;;;;;;;0.50;0.30;;;22.40;30.10;;;;;;4993895;28;20035;-44
2021/01/07 10:13:43;;;;;;;0.43;0.30;;;22.50;30.30;;;;;;4997272;28;20050;-43
2021/01/07 10:16:14;;;;;;;0.47;0.40;;;22.60;30.50;;;;;;4998282;28;20026;-45
2021/01/07 10:18:40;;;;;;;0.63;0.40;;;22.60;30.60;;;;;;4996240;28;20104;-44
2021/01/07 10:21:09;;;;;;;0.63;0.40;;;22.70;30.60;;;;;;4995901;28;20054;-44
2021/01/07 10:23:39;;;;;;;0.32;0.30;;;22.80;30.70;;;;;;4993584;28;20057;-44
2021/01/07 10:26:05;;;;;;;0.40;0.20;;;22.90;30.70;;;;;;4995745;28;20115;-43
2021/01/07 10:28:31;;;;;;;0.47;0.40;;;22.90;30.60;;;;;;4994263;28;20131;-45
2021/01/07 10:30:56;;;;;;;0.77;0.40;;;23.00;30.60;;;;;;4996009;28;20026;-44
2021/01/07 10:33:22;;;;;;;0.45;0.40;;;23.00;30.60;;;;;;4995968;28;20400;-44
2021/01/07 10:35:49;;;;;;;0.98;0.47;;;23.10;30.60;;;;;;4995738;28;20110;-44
2021/01/07 10:38:23;;;;;;;0.57;0.40;;;23.10;30.60;;;;;;4996560;28;20097;-45
2021/01/07 10:40:51;;;;;;;1.85;0.30;;;23.20;30.50;;;;;;4997518;28;20034;-41
2021/01/07 10:43:22;;;;;;;0.82;0.40;;;23.20;30.30;;;;;;4997571;28;20120;-44
2021/01/07 10:45:55;;;;;;;0.82;0.38;;;23.20;30.10;;;;;;4996231;28;20334;-42
2021/01/07 10:48:23;;;;;;;0.95;0.47;;;23.20;30.00;;;;;;4997460;28;20073;-42
2021/01/07 10:50:50;;;;;;;0.88;0.50;;;23.20;30.00;;;;;;4996920;28;20331;-44
2021/01/07 10:53:25;;;;;;;0.60;0.50;;;23.20;29.90;;;;;;4992681;28;20041;-41
2021/01/07 10:56:16;;;;;;;0.70;0.40;;;23.20;29.80;;;;;;4977883;28;20422;-42
2021/01/07 10:58:54;;;;;;;0.45;0.30;;;23.20;29.70;;;;;;4983791;28;20418;-42
2021/01/07 11:01:32;;;;;;;0.73;0.40;;;23.30;29.70;;;;;;4997235;28;20030;-42
2021/01/07 11:04:32;;;;;;;1.00;0.60;;;23.20;29.70;;;;;;4979681;28;20045;-41
2021/01/07 11:07:13;;;;;;;0.57;0.38;;;23.20;29.60;;;;;;4995284;28;20049;-42
2021/01/07 11:09:43;;;;;;;1.38;0.75;;;23.30;29.60;;;;;;4996927;28;20334;-42
2021/01/07 11:12:19;;;;;;;0.85;0.40;;;23.30;29.60;;;;;;4993186;28;20034;-56
2021/01/07 11:14:52;;;;;;;0.75;0.60;;;23.20;29.50;;;;;;4981798;28;20047;-60
2021/01/07 11:17:23;;;;;;;0.88;0.45;;;23.30;29.50;;;;;;4993323;28;20023;-43
2021/01/07 11:19:50;;;;;;;1.55;0.50;;;23.20;29.40;;;;;;4983646;28;20031;-42
2021/01/07 11:22:25;;;;;;;1.10;0.50;;;23.30;29.40;;;;;;4984157;28;20437;-42
2021/01/07 11:24:51;;;;;;;1.17;0.60;;;23.20;29.40;;;;;;4980471;28;20030;-43
2021/01/07 11:27:18;;;;;;;0.60;0.38;;;23.20;29.40;;;;;;4991745;28;20046;-43
2021/01/07 11:29:44;;;;;;;0.40;0.38;;;23.30;29.70;;;;;;4996218;28;20113;-43
2021/01/07 11:32:10;;;;;;;1.85;0.40;;;23.30;29.80;;;;;;5002435;28;20058;-45
2021/01/07 11:34:36;;;;;;;0.50;0.40;;;23.30;29.90;;;;;;4996425;28;20397;-46
2021/01/07 11:37:26;;;;;;;0.70;0.40;;;23.30;30.00;;;;;;4985517;28;20113;-45
2021/01/07 11:39:58;;;;;;;2.78;0.40;;;23.30;30.00;;;;;;4986978;28;20026;-45
2021/01/07 11:42:35;;;;;;;0.50;0.40;;;23.30;30.00;;;;;;4980628;28;20100;-44
2021/01/07 11:45:11;;;;;;;0.82;0.40;;;23.30;30.10;;;;;;4995991;28;20054;-49
2021/01/07 11:47:52;;;;;;;0.73;0.60;;;23.30;30.20;;;;;;4992617;28;20043;-50
2021/01/07 11:50:18;;;;;;;0.95;0.30;;;23.30;30.20;;;;;;4978816;28;20049;-46
2021/01/07 11:52:45;;;;;;;3.78;0.50;;;23.40;30.20;;;;;;4994447;28;20129;-44
2021/01/07 11:55:12;;;;;;;0.82;0.50;;;23.40;30.20;;;;;;4994544;28;20030;-57
2021/01/07 11:57:40;;;;;;;1.98;0.35;;;23.40;30.20;;;;;;4994747;28;20049;-46
2021/01/07 12:00:11;;;;;;;0.60;0.30;;;23.40;30.30;;;;;;4995724;28;20117;-50
2021/01/07 12:02:40;;;;;;;1.17;0.45;;;23.50;30.20;;;;;;4995787;28;20030;-44
2021/01/07 12:05:08;;;;;;;0.60;0.50;;;23.50;30.20;;;;;;4994028;28;20098;-48
2021/01/07 12:08:02;;;;;;;1.88;0.50;;;23.50;30.20;;;;;;4995103;28;20057;-45
2021/01/07 12:10:29;;;;;;;0.20;0.20;;;23.50;30.20;;;;;;4985989;28;20034;-44
2021/01/07 12:13:09;;;;;;;2.15;0.40;;;23.50;30.10;;;;;;4979080;28;20181;-45
2021/01/07 12:15:37;;;;;;;0.63;0.30;;;23.50;30.10;;;;;;4990688;28;20038;-43
2021/01/07 12:18:06;;;;;;;0.60;0.50;;;23.50;30.00;;;;;;4995306;28;20036;-49
2021/01/07 12:20:35;;;;;;;0.40;0.30;;;23.50;30.00;;;;;;4994231;28;20061;-52
2021/01/07 12:23:03;;;;;;;1.08;0.40;;;23.50;30.00;;;;;;4995431;28;20023;-47
2021/01/07 12:25:30;;;;;;;0.52;0.40;;;23.50;30.00;;;;;;4988307;28;20485;-44
2021/01/07 12:27:57;;;;;;;1.05;0.38;;;23.60;30.00;;;;;;4979800;28;20045;-49
2021/01/07 12:30:24;;;;;;;0.47;0.30;;;23.60;30.00;;;;;;4994120;28;20044;-52
2021/01/07 12:33:22;;;;;;;0.75;0.60;;;23.50;30.00;;;;;;4994346;28;20046;-43
2021/01/07 12:36:10;;;;;;;0.88;0.22;;;23.60;30.00;;;;;;4977351;28;20053;-46
2021/01/07 12:38:51;;;;;;;0.90;0.47;;;23.60;29.90;;;;;;4952945;28;20053;-48
2021/01/07 12:41:23;;;;;;;2.90;0.75;;;23.60;29.90;;;;;;4994809;28;20031;-46
2021/01/07 12:43:53;;;;;;;0.30;0.30;;;23.60;29.90;;;;;;4989796;28;20418;-45
2021/01/07 12:46:25;;;;;;;0.40;0.20;;;23.60;29.90;;;;;;5000618;28;20082;-42
2021/01/07 12:48:51;;;;;;;0.28;0.22;;;23.60;29.90;;;;;;4993749;28;20030;-43
2021/01/07 12:51:17;;;;;;;1.15;0.30;;;23.60;29.90;;;;;;4991636;28;20343;-44
2021/01/07 12:53:44;;;;;;;0.38;0.30;;;23.50;29.70;;;;;;4993081;28;20031;-42
2021/01/07 12:56:19;;;;;;;0.38;0.30;;;23.60;29.60;;;;;;4993567;28;20049;-41